createdAt,value
2023-01-01T00:01:25.297Z,99266.88
2023-01-01T00:03:56.623Z,99273.69
2023-01-01T00:06:27.928Z,99272.06
2023-01-01T00:09:15.832Z,99268.78
2023-01-01T00:11:48.603Z,99276.03
2023-01-01T00:14:18.126Z,99279.44
2023-01-01T00:16:48.669Z,99278.13
2023-01-01T00:19:17.904Z,99286.03
2023-01-01T00:22:44.151Z,99279.38
2023-01-01T00:24:59.083Z,99281.69
2023-01-01T00:27:28.496Z,99285.09
2023-01-01T00:30:01.473Z,99290.41
2023-01-01T00:32:32.093Z,99302.28
2023-01-01T00:35:01.349Z,99296.56
2023-01-01T00:37:31.723Z,99296.88
2023-01-01T00:40:00.970Z,99297.16
2023-01-01T00:42:31.659Z,99296.31
2023-01-01T00:45:02.038Z,99298.91
2023-01-01T00:47:31.639Z,99300.97
2023-01-01T00:50:00.845Z,99306.69
2023-01-01T00:52:30.057Z,99300.25
2023-01-01T00:54:59.281Z,99297.00
2023-01-01T00:57:28.483Z,99297.38
2023-01-01T00:59:57.640Z,99301.75
2023-01-01T01:02:26.960Z,99301.06
2023-01-01T01:04:57.425Z,99303.66
2023-01-01T01:07:26.807Z,99313.19
2023-01-01T01:09:57.009Z,99311.75
2023-01-01T01:12:26.921Z,99314.34
2023-01-01T01:14:57.717Z,99309.97
2023-01-01T01:17:27.022Z,99314.88
2023-01-01T01:19:56.483Z,99310.53
2023-01-01T01:22:29.098Z,99303.72
2023-01-01T01:24:58.626Z,99308.47
2023-01-01T01:27:27.862Z,99311.50
2023-01-01T01:29:57.578Z,99308.91
2023-01-01T01:32:26.830Z,99301.16
2023-01-01T01:34:56.028Z,99296.91
2023-01-01T01:37:25.271Z,99297.28
2023-01-01T01:39:54.483Z,99297.16
2023-01-01T01:42:23.680Z,99290.31
2023-01-01T01:44:59.298Z,99277.81
2023-01-01T01:47:34.488Z,99273.59
2023-01-01T01:50:06.800Z,99272.31
2023-01-01T01:52:40.295Z,99263.59
2023-01-01T01:55:10.669Z,99262.50
2023-01-01T01:57:41.226Z,99270.81
2023-01-01T02:00:11.889Z,99274.22
2023-01-01T02:02:56.395Z,99276.47
2023-01-01T02:05:26.378Z,99274.72
2023-01-01T02:07:56.442Z,99265.22
2023-01-01T02:10:27.579Z,99277.59
2023-01-01T02:12:57.056Z,99270.41
2023-01-01T02:15:57.304Z,99276.50
2023-01-01T02:18:36.835Z,99273.78
2023-01-01T02:21:12.107Z,99267.09
2023-01-01T02:23:47.277Z,99261.78
2023-01-01T02:26:40.629Z,99270.94
2023-01-01T02:29:43.881Z,99262.91
2023-01-01T02:32:19.930Z,99271.22
2023-01-01T02:35:24.227Z,99270.81
2023-01-01T02:37:59.339Z,99273.81
2023-01-01T02:40:29.389Z,99264.56
2023-01-01T02:42:59.103Z,99262.13
2023-01-01T02:45:28.376Z,99258.28
2023-01-01T02:47:57.569Z,99258.28
2023-01-01T02:50:28.824Z,99255.81
2023-01-01T02:53:11.246Z,99258.41
2023-01-01T02:56:08.492Z,99246.59
2023-01-01T02:59:15.811Z,99256.41
2023-01-01T03:02:03.442Z,99257.22
2023-01-01T03:04:41.334Z,99261.88
2023-01-01T03:07:31.958Z,99268.41
2023-01-01T03:10:27.586Z,99246.09
2023-01-01T03:13:03.588Z,99265.81
2023-01-01T03:16:00.759Z,99265.69
2023-01-01T03:19:11.603Z,99268.09
2023-01-01T03:22:01.300Z,99257.72
2023-01-01T03:24:47.432Z,99268.63
2023-01-01T03:27:28.025Z,99258.84
2023-01-01T03:30:01.158Z,99272.09
2023-01-01T03:32:59.958Z,99267.34
2023-01-01T03:35:57.562Z,99251.50
2023-01-01T03:38:48.646Z,99261.19
2023-01-01T03:41:23.015Z,99240.13
2023-01-01T03:44:11.537Z,99255.91
2023-01-01T03:46:41.575Z,99251.25
2023-01-01T03:49:12.345Z,99249.78
2023-01-01T03:51:55.731Z,99250.88
2023-01-01T03:55:01.641Z,99260.56
2023-01-01T03:57:50.827Z,99264.69
2023-01-01T04:00:23.772Z,99265.50
2023-01-01T04:02:57.640Z,99275.88
2023-01-01T04:05:29.863Z,99272.59
2023-01-01T04:08:02.705Z,99267.31
2023-01-01T04:10:35.946Z,99272.91
2023-01-01T04:13:06.562Z,99263.34
2023-01-01T04:15:36.260Z,99263.34
2023-01-01T04:18:05.754Z,99250.28
2023-01-01T04:20:34.968Z,99255.06
2023-01-01T04:23:05.795Z,99248.88
2023-01-01T04:25:35.191Z,99249.69
2023-01-01T04:28:04.632Z,99248.06
2023-01-01T04:33:03.782Z,99254.63
2023-01-01T04:35:33.046Z,99262.84
2023-01-01T04:38:03.888Z,99257.25
2023-01-01T04:40:33.085Z,99268.06
2023-01-01T04:43:02.333Z,99282.91
2023-01-01T04:45:31.633Z,99275.41
2023-01-01T04:48:05.257Z,99269.84
2023-01-01T04:50:34.505Z,99266.56
2023-01-01T04:53:03.699Z,99273.25
2023-01-01T04:55:34.320Z,99271.59
2023-01-01T04:58:03.776Z,99276.22
2023-01-01T05:00:33.719Z,99271.75
2023-01-01T05:03:03.157Z,99268.88
2023-01-01T05:05:32.424Z,99274.75
2023-01-01T05:08:01.631Z,99274.31
2023-01-01T05:10:30.869Z,99272.91
2023-01-01T05:13:00.040Z,99274.03
2023-01-01T05:15:29.261Z,99272.41
2023-01-01T05:17:58.579Z,99283.28
2023-01-01T05:20:29.276Z,99296.63
2023-01-01T05:23:00.107Z,99288.47
2023-01-01T05:25:29.487Z,99283.00
2023-01-01T05:27:58.822Z,99291.47
2023-01-01T05:30:28.212Z,99285.31
2023-01-01T05:32:58.276Z,99291.16
2023-01-01T05:35:28.468Z,99292.28
2023-01-01T05:37:58.464Z,99294.19
2023-01-01T05:40:27.851Z,99296.91
2023-01-01T05:42:57.521Z,99306.03
2023-01-01T05:45:26.768Z,99304.41
2023-01-01T05:47:56.636Z,99288.88
2023-01-01T05:50:25.865Z,99287.91
2023-01-01T05:52:55.537Z,99297.03
2023-01-01T05:55:24.735Z,99305.47
2023-01-01T05:57:53.973Z,99301.25
2023-01-01T06:00:23.548Z,99309.44
2023-01-01T06:02:55.042Z,99314.91
2023-01-01T06:05:24.311Z,99316.66
2023-01-01T06:07:53.556Z,99311.50
2023-01-01T06:10:22.759Z,99305.09
2023-01-01T06:12:52.008Z,99330.16
2023-01-01T06:15:21.197Z,99320.78
2023-01-01T06:17:50.376Z,99316.53
2023-01-01T06:20:19.880Z,99317.91
2023-01-01T06:23:14.553Z,99322.09
2023-01-01T06:25:44.294Z,99326.63
2023-01-01T06:28:15.848Z,99327.28
2023-01-01T06:30:47.583Z,99328.28
2023-01-01T06:33:16.796Z,99326.91
2023-01-01T06:35:45.983Z,99342.44
2023-01-01T06:38:16.332Z,99349.25
2023-01-01T06:40:55.911Z,99347.59
2023-01-01T06:43:26.039Z,99353.72
2023-01-01T06:46:07.505Z,99347.06
2023-01-01T06:48:37.164Z,99356.31
2023-01-01T06:51:15.991Z,99360.56
2023-01-01T06:53:45.849Z,99363.13
2023-01-01T06:56:17.266Z,99375.00
2023-01-01T06:58:48.567Z,99370.63
2023-01-01T07:01:23.404Z,99369.00
2023-01-01T07:03:59.864Z,99387.38
2023-01-01T07:06:31.001Z,99390.66
2023-01-01T07:09:00.489Z,99381.38
2023-01-01T07:12:06.035Z,99390.66
2023-01-01T07:14:35.226Z,99395.53
2023-01-01T07:17:07.131Z,99404.81
2023-01-01T07:19:36.358Z,99410.53
2023-01-01T07:22:05.609Z,99425.13
2023-01-01T07:24:34.914Z,99429.31
2023-01-01T07:27:04.136Z,99424.16
2023-01-01T07:29:33.615Z,99426.22
2023-01-01T07:32:04.481Z,99425.53
2023-01-01T07:34:35.411Z,99420.09
2023-01-01T07:37:04.617Z,99429.06
2023-01-01T07:39:33.830Z,99422.25
2023-01-01T07:42:09.180Z,99425.78
2023-01-01T07:44:40.164Z,99422.41
2023-01-01T07:47:23.745Z,99424.56
2023-01-01T07:49:53.565Z,99431.78
2023-01-01T07:52:22.956Z,99435.63
2023-01-01T07:54:52.460Z,99439.16
2023-01-01T07:57:22.594Z,99436.41
2023-01-01T07:59:51.949Z,99434.50
2023-01-01T08:02:23.352Z,99439.69
2023-01-01T08:04:52.732Z,99438.47
2023-01-01T08:07:22.629Z,99438.31
2023-01-01T08:09:51.821Z,99434.09
2023-01-01T08:12:21.120Z,99443.19
2023-01-01T08:15:51.869Z,99431.59
2023-01-01T08:18:21.311Z,99434.72
2023-01-01T08:20:50.563Z,99443.41
2023-01-01T08:23:19.800Z,99448.19
2023-01-01T08:25:49.265Z,99443.53
2023-01-01T08:28:18.502Z,99443.41
2023-01-01T08:30:47.941Z,99438.75
2023-01-01T08:33:17.149Z,99441.50
2023-01-01T08:35:51.997Z,99439.84
2023-01-01T08:38:23.258Z,99439.84
2023-01-01T08:40:52.664Z,99445.03
2023-01-01T08:43:22.975Z,99445.72
2023-01-01T08:45:52.305Z,99448.00
2023-01-01T08:48:25.694Z,99438.63
2023-01-01T08:51:01.661Z,99453.34
2023-01-01T08:53:32.375Z,99454.94
2023-01-01T08:56:10.329Z,99456.31
2023-01-01T08:58:41.045Z,99456.97
2023-01-01T09:01:11.289Z,99458.88
2023-01-01T09:03:40.670Z,99456.38
2023-01-01T09:06:09.851Z,99454.72
2023-01-01T09:08:39.066Z,99456.06
2023-01-01T09:11:21.895Z,99448.44
2023-01-01T09:13:51.994Z,99453.03
2023-01-01T09:16:25.452Z,99445.41
2023-01-01T09:18:54.685Z,99439.66
2023-01-01T09:21:24.060Z,99436.94
2023-01-01T09:23:53.320Z,99438.56
2023-01-01T09:26:22.574Z,99437.63
2023-01-01T09:28:54.240Z,99443.25
2023-01-01T09:31:23.896Z,99429.06
2023-01-01T09:33:54.691Z,99420.75
2023-01-01T09:36:23.837Z,99420.03
2023-01-01T09:38:54.641Z,99421.09
2023-01-01T09:41:52.221Z,99418.59
2023-01-01T09:44:49.503Z,99416.06
2023-01-01T09:47:30.591Z,99412.88
2023-01-01T09:50:05.347Z,99420.59
2023-01-01T09:52:45.323Z,99426.41
2023-01-01T09:55:34.769Z,99420.03
2023-01-01T09:58:05.174Z,99415.50
2023-01-01T10:00:35.214Z,99416.84
2023-01-01T10:03:13.235Z,99414.38
2023-01-01T10:05:47.657Z,99404.81
2023-01-01T10:08:46.994Z,99394.44
2023-01-01T10:11:39.463Z,99391.91
2023-01-01T10:14:33.112Z,99397.09
2023-01-01T10:17:10.908Z,99388.63
2023-01-01T10:19:48.502Z,99392.56
2023-01-01T10:22:25.782Z,99379.78
2023-01-01T10:25:01.434Z,99372.34
2023-01-01T10:27:38.765Z,99375.13
2023-01-01T10:30:20.211Z,99382.09
2023-01-01T10:32:51.337Z,99374.13
2023-01-01T10:35:34.678Z,99373.41
2023-01-01T10:38:06.028Z,99378.47
2023-01-01T10:40:35.341Z,99375.56
2023-01-01T10:43:11.279Z,99379.81
2023-01-01T10:45:45.898Z,99385.97
2023-01-01T10:48:22.247Z,99390.16
2023-01-01T10:51:07.672Z,99383.25
2023-01-01T10:53:40.545Z,99385.31
2023-01-01T10:56:15.631Z,99380.53
2023-01-01T10:58:55.025Z,99382.16
2023-01-01T11:01:30.207Z,99381.63
2023-01-01T11:04:13.806Z,99381.94
2023-01-01T11:06:47.245Z,99384.09
2023-01-01T11:09:32.061Z,99375.19
2023-01-01T11:12:11.901Z,99373.88
2023-01-01T11:14:51.077Z,99373.13
2023-01-01T11:17:26.725Z,99360.38
2023-01-01T11:20:02.540Z,99364.28
2023-01-01T11:22:38.435Z,99368.38
2023-01-01T11:25:28.346Z,99364.56
2023-01-01T11:28:17.263Z,99363.47
2023-01-01T11:30:59.468Z,99352.28
2023-01-01T11:33:32.539Z,99361.59
2023-01-01T11:36:05.295Z,99360.94
2023-01-01T11:38:35.139Z,99358.03
2023-01-01T11:41:07.486Z,99357.25
2023-01-01T11:43:43.922Z,99355.00
2023-01-01T11:46:22.510Z,99353.84
2023-01-01T11:48:53.680Z,99347.22
2023-01-01T11:51:34.050Z,99330.09
2023-01-01T11:54:11.246Z,99346.66
2023-01-01T11:56:41.585Z,99347.13
2023-01-01T11:59:18.161Z,99351.50
2023-01-01T12:02:01.809Z,99354.63
2023-01-01T12:04:48.299Z,99355.97
2023-01-01T12:07:22.524Z,99360.19
2023-01-01T12:10:02.235Z,99348.97
2023-01-01T12:12:47.698Z,99345.88
2023-01-01T12:15:27.650Z,99347.34
2023-01-01T12:18:15.518Z,99338.06
2023-01-01T12:20:52.689Z,99339.03
2023-01-01T12:23:22.014Z,99341.97
2023-01-01T12:26:06.386Z,99340.34
2023-01-01T12:28:57.625Z,99346.81
2023-01-01T12:31:42.101Z,99346.97
2023-01-01T12:34:55.665Z,99348.59
2023-01-01T12:37:46.996Z,99338.06
2023-01-01T12:40:46.963Z,99338.19
2023-01-01T12:43:26.588Z,99349.44
2023-01-01T12:46:24.451Z,99354.63
2023-01-01T12:49:18.404Z,99351.38
2023-01-01T12:51:50.364Z,99342.13
2023-01-01T12:54:47.263Z,99337.56
2023-01-01T12:58:02.379Z,99343.59
2023-01-01T13:00:33.067Z,99349.28
2023-01-01T13:03:11.676Z,99352.56
2023-01-01T13:05:44.609Z,99343.09
2023-01-01T13:08:13.926Z,99348.97
2023-01-01T13:10:45.686Z,99349.94
2023-01-01T13:13:17.667Z,99347.34
2023-01-01T13:15:58.080Z,99345.06
2023-01-01T13:18:32.497Z,99341.19
2023-01-01T13:21:24.136Z,99342.81
2023-01-01T13:23:56.478Z,99341.50
2023-01-01T13:26:29.113Z,99335.50
2023-01-01T13:29:02.728Z,99338.47
2023-01-01T13:31:38.398Z,99340.41
2023-01-01T13:34:36.242Z,99346.59
2023-01-01T13:37:32.354Z,99344.81
2023-01-01T13:40:13.871Z,99348.88
2023-01-01T13:43:00.717Z,99349.19
2023-01-01T13:46:11.925Z,99355.53
2023-01-01T13:48:42.882Z,99358.28
2023-01-01T13:52:02.811Z,99354.22
2023-01-01T13:54:52.225Z,99360.72
2023-01-01T13:57:57.635Z,99363.66
2023-01-01T14:00:49.795Z,99364.63
2023-01-01T14:03:28.027Z,99363.97
2023-01-01T14:06:38.179Z,99358.09
2023-01-01T14:09:13.315Z,99357.44
2023-01-01T14:11:42.560Z,99366.38
2023-01-01T14:14:27.473Z,99375.16
2023-01-01T14:17:02.171Z,99372.72
2023-01-01T14:19:32.946Z,99376.28
2023-01-01T14:22:07.401Z,99371.22
2023-01-01T14:24:47.997Z,99374.50
2023-01-01T14:27:22.966Z,99372.38
2023-01-01T14:29:52.593Z,99380.34
2023-01-01T14:32:24.797Z,99364.22
2023-01-01T14:35:01.849Z,99369.72
2023-01-01T14:37:33.949Z,99372.31
2023-01-01T14:40:09.320Z,99376.88
2023-01-01T14:42:40.543Z,99383.50
2023-01-01T14:45:16.347Z,99378.78
2023-01-01T14:47:50.445Z,99381.41
2023-01-01T14:50:28.007Z,99388.53
2023-01-01T14:53:12.688Z,99383.34
2023-01-01T14:55:47.108Z,99384.16
2023-01-01T14:58:20.817Z,99382.50
2023-01-01T15:00:51.337Z,99374.03
2023-01-01T15:03:24.035Z,99388.69
2023-01-01T15:06:03.449Z,99388.03
2023-01-01T15:08:32.712Z,99402.50
2023-01-01T15:11:29.411Z,99410.44
2023-01-01T15:14:02.138Z,99406.69
2023-01-01T15:16:38.092Z,99407.31
2023-01-01T15:19:19.534Z,99419.66
2023-01-01T15:21:48.996Z,99417.84
2023-01-01T15:24:26.207Z,99413.06
2023-01-01T15:26:58.435Z,99406.91
2023-01-01T15:29:32.887Z,99404.69
2023-01-01T15:32:50.188Z,99424.84
2023-01-01T15:35:32.044Z,99423.59
2023-01-01T15:38:27.728Z,99415.78
2023-01-01T15:40:57.410Z,99414.59
2023-01-01T15:43:36.405Z,99427.81
2023-01-01T15:46:32.033Z,99424.22
2023-01-01T15:49:03.356Z,99435.97
2023-01-01T15:51:32.870Z,99436.78
2023-01-01T15:54:05.615Z,99438.56
2023-01-01T15:56:40.304Z,99449.66
2023-01-01T15:59:27.060Z,99445.72
2023-01-01T16:05:05.929Z,99451.56
2023-01-01T16:07:37.332Z,99447.34
2023-01-01T16:10:18.218Z,99448.59
2023-01-01T16:12:50.029Z,99460.63
2023-01-01T16:15:22.434Z,99457.06
2023-01-01T16:17:52.548Z,99447.97
2023-01-01T16:20:30.762Z,99458.72
2023-01-01T16:23:03.894Z,99445.72
2023-01-01T16:25:40.435Z,99459.22
2023-01-01T16:28:11.616Z,99451.44
2023-01-01T16:30:43.863Z,99449.75
2023-01-01T16:33:19.212Z,99457.69
2023-01-01T16:35:49.443Z,99459.31
2023-01-01T16:38:20.984Z,99454.41
2023-01-01T16:40:52.854Z,99457.03
2023-01-01T16:43:25.133Z,99464.53
2023-01-01T16:45:57.364Z,99460.44
2023-01-01T16:48:26.665Z,99466.47
2023-01-01T16:53:40.386Z,99459.91
2023-01-01T16:56:17.875Z,99464.16
2023-01-01T16:59:05.519Z,99467.94
2023-01-01T17:01:38.578Z,99465.78
2023-01-01T17:04:11.792Z,99468.38
2023-01-01T17:06:55.177Z,99469.34
2023-01-01T17:09:57.586Z,99472.69
2023-01-01T17:12:47.668Z,99477.59
2023-01-01T17:19:26.254Z,99461.22
2023-01-01T17:22:47.459Z,99485.81
2023-01-01T17:25:19.106Z,99487.94
2023-01-01T17:28:12.535Z,99474.41
2023-01-01T17:30:50.202Z,99492.84
2023-01-01T17:34:29.013Z,99484.38
2023-01-01T17:37:02.300Z,99483.41
2023-01-01T17:39:32.585Z,99507.56
2023-01-01T17:42:02.683Z,99501.22
2023-01-01T17:44:33.611Z,99494.72
2023-01-01T17:47:06.517Z,99488.69
2023-01-01T17:49:45.328Z,99494.41
2023-01-01T17:52:16.173Z,99492.63
2023-01-01T17:54:51.983Z,99473.59
2023-01-01T17:57:29.615Z,99482.06
2023-01-01T18:00:03.109Z,99466.25
2023-01-01T18:02:42.442Z,99482.34
2023-01-01T18:05:14.877Z,99484.75
2023-01-01T18:08:40.836Z,99499.31
2023-01-01T18:12:27.499Z,99493.28
2023-01-01T18:15:00.145Z,99486.25
2023-01-01T18:21:58.531Z,99487.22
2023-01-01T18:25:22.254Z,99484.47
2023-01-01T18:49:25.901Z,99466.44
2023-01-01T18:52:18.375Z,99459.06
2023-01-01T18:54:54.142Z,99456.25
2023-01-01T18:57:30.335Z,99469.41
2023-01-01T19:00:23.095Z,99479.84
2023-01-01T19:03:18.062Z,99455.81
2023-01-01T19:05:50.929Z,99457.50
2023-01-01T19:08:23.967Z,99463.69
2023-01-01T19:11:02.078Z,99468.91
2023-01-01T19:13:42.880Z,99463.03
2023-01-01T19:16:12.661Z,99465.00
2023-01-01T19:18:45.475Z,99441.06
2023-01-01T19:21:26.504Z,99451.47
2023-01-01T19:23:58.263Z,99470.06
2023-01-01T19:26:36.470Z,99463.88
2023-01-01T19:29:19.738Z,99466.03
2023-01-01T19:31:55.476Z,99442.25
2023-01-01T19:34:30.831Z,99442.25
2023-01-01T19:37:05.363Z,99436.44
2023-01-01T19:39:36.971Z,99448.34
2023-01-01T19:42:12.576Z,99451.09
2023-01-01T19:44:46.995Z,99457.75
2023-01-01T19:47:22.592Z,99450.63
2023-01-01T19:54:12.489Z,99438.75
2023-01-01T19:56:42.451Z,99429.66
2023-01-01T19:59:14.911Z,99438.75
2023-01-01T20:01:45.524Z,99420.03
2023-01-01T20:04:15.367Z,99433.72
2023-01-01T20:06:45.514Z,99420.38
2023-01-01T20:09:15.896Z,99445.28
2023-01-01T20:11:50.745Z,99430.63
2023-01-01T20:14:43.689Z,99408.16
2023-01-01T20:17:23.562Z,99419.22
2023-01-01T20:19:56.759Z,99428.03
2023-01-01T20:22:28.036Z,99425.09
2023-01-01T20:24:58.816Z,99424.47
2023-01-01T20:27:28.777Z,99423.16
2023-01-01T20:29:59.182Z,99438.94
2023-01-01T20:32:29.241Z,99420.38
2023-01-01T20:35:05.380Z,99435.06
2023-01-01T20:37:37.836Z,99422.03
2023-01-01T20:40:14.266Z,99433.94
2023-01-01T20:42:46.144Z,99419.41
2023-01-01T20:45:18.390Z,99422.84
2023-01-01T20:47:52.297Z,99433.88
2023-01-01T20:50:25.348Z,99424.75
2023-01-01T20:53:00.675Z,99423.94
2023-01-01T20:55:31.246Z,99433.72
2023-01-01T20:58:01.702Z,99430.28
2023-01-01T21:00:36.099Z,99444.78
2023-01-01T21:03:06.545Z,99432.44
2023-01-01T21:05:36.026Z,99431.31
2023-01-01T21:08:05.880Z,99442.72
2023-01-01T21:10:35.303Z,99450.53
2023-01-01T21:13:04.855Z,99440.09
2023-01-01T21:15:34.320Z,99445.16
2023-01-01T21:18:07.479Z,99432.91
2023-01-01T21:20:45.476Z,99441.38
2023-01-01T21:23:31.740Z,99449.03
2023-01-01T21:26:01.133Z,99446.59
2023-01-01T21:28:34.768Z,99430.16
2023-01-01T21:31:10.423Z,99445.63
2023-01-01T21:33:42.519Z,99444.03
2023-01-01T21:36:23.472Z,99450.84
2023-01-01T21:38:54.501Z,99440.78
2023-01-01T21:41:26.379Z,99452.50
2023-01-01T21:44:00.584Z,99446.34
2023-01-01T21:46:39.683Z,99449.25
2023-01-01T21:49:17.762Z,99424.81
2023-01-01T21:51:50.191Z,99445.53
2023-01-01T21:54:27.372Z,99429.56
2023-01-01T21:56:59.833Z,99435.94
2023-01-01T21:59:42.521Z,99437.56
2023-01-01T22:02:29.313Z,99448.16
2023-01-01T22:05:03.112Z,99425.50
2023-01-01T22:07:57.431Z,99437.28
2023-01-01T22:10:54.223Z,99428.13
2023-01-01T22:16:33.638Z,99417.72
2023-01-01T22:19:14.866Z,99435.50
2023-01-01T22:21:47.462Z,99419.03
2023-01-01T22:24:35.254Z,99410.56
2023-01-01T22:31:49.368Z,99386.47
2023-01-01T22:34:22.741Z,99405.88
2023-01-01T22:36:54.304Z,99414.34
2023-01-01T22:39:30.585Z,99396.88
2023-01-01T22:42:00.134Z,99404.75
2023-01-01T22:44:30.770Z,99400.16
2023-01-01T22:47:02.016Z,99388.78
2023-01-01T22:49:40.374Z,99399.06
2023-01-01T22:52:10.603Z,99391.56
2023-01-01T22:54:39.908Z,99390.25
2023-01-01T22:57:18.407Z,99393.06
2023-01-01T22:59:49.171Z,99381.31
2023-01-01T23:02:19.076Z,99387.84
2023-01-01T23:04:48.573Z,99381.47
2023-01-01T23:07:20.601Z,99374.66
2023-01-01T23:09:50.017Z,99384.75
2023-01-01T23:12:19.384Z,99385.56
2023-01-01T23:15:07.597Z,99383.94
2023-01-01T23:17:36.937Z,99380.19
2023-01-01T23:20:07.514Z,99388.00
2023-01-01T23:22:40.499Z,99382.13
2023-01-01T23:25:15.427Z,99386.69
2023-01-01T23:27:45.673Z,99377.09
2023-01-01T23:30:15.383Z,99379.69
2023-01-01T23:32:46.100Z,99381.31
2023-01-01T23:35:15.563Z,99376.09
2023-01-01T23:37:45.592Z,99387.84
2023-01-01T23:40:14.900Z,99364.88
2023-01-01T23:42:45.660Z,99365.22
2023-01-01T23:45:15.104Z,99361.13
2023-01-01T23:47:44.555Z,99357.06
2023-01-01T23:50:13.903Z,99360.13
2023-01-01T23:52:43.425Z,99355.56
2023-01-01T23:55:13.160Z,99359.00
2023-01-01T23:57:42.456Z,99340.75
